BEG airport status
LYBE 090230Z 16009KT CAVOK 11/03 Q1015 NOSIG